sensor_id;sensor_type;location;lat;lon;timestamp;temperature;humidity
12386;DHT22;6257;57.634;18.310;2023-07-30T00:00:35;16.60;99.90
12386;DHT22;6257;57.634;18.310;2023-07-30T00:03:02;16.60;99.90
12386;DHT22;6257;57.634;18.310;2023-07-30T00:05:29;16.60;99.90
12386;DHT22;6257;57.634;18.310;2023-07-30T00:07:56;16.60;99.90
12386;DHT22;6257;57.634;18.310;2023-07-30T00:10:23;16.50;99.90
12386;DHT22;6257;57.634;18.310;2023-07-30T00:12:50;16.50;99.90
12386;DHT22;6257;57.634;18.310;2023-07-30T00:15:19;16.50;99.90
12386;DHT22;6257;57.634;18.310;2023-07-30T00:17:46;16.50;99.90
12386;DHT22;6257;57.634;18.310;2023-07-30T00:20:13;16.60;99.90
12386;DHT22;6257;57.634;18.310;2023-07-30T00:22:40;16.60;99.90
12386;DHT22;6257;57.634;18.310;2023-07-30T00:25:07;16.60;99.90
12386;DHT22;6257;57.634;18.310;2023-07-30T00:27:35;16.60;99.90
12386;DHT22;6257;57.634;18.310;2023-07-30T00:30:02;16.60;99.90
12386;DHT22;6257;57.634;18.310;2023-07-30T00:32:31;16.60;99.90
12386;DHT22;6257;57.634;18.310;2023-07-30T00:34:58;16.70;99.90
12386;DHT22;6257;57.634;18.310;2023-07-30T00:37:25;16.60;99.90
12386;DHT22;6257;57.634;18.310;2023-07-30T00:39:52;16.70;99.90
12386;DHT22;6257;57.634;18.310;2023-07-30T00:42:19;16.70;99.90
12386;DHT22;6257;57.634;18.310;2023-07-30T00:44:46;16.70;99.90
12386;DHT22;6257;57.634;18.310;2023-07-30T00:47:13;16.70;99.90
12386;DHT22;6257;57.634;18.310;2023-07-30T00:49:42;16.70;99.90
12386;DHT22;6257;57.634;18.310;2023-07-30T00:52:09;16.70;99.90
12386;DHT22;6257;57.634;18.310;2023-07-30T00:54:36;16.70;99.90
12386;DHT22;6257;57.634;18.310;2023-07-30T00:57:04;16.70;99.90
12386;DHT22;6257;57.634;18.310;2023-07-30T00:59:32;16.70;99.90
12386;DHT22;6257;57.634;18.310;2023-07-30T01:01:59;16.80;99.90
12386;DHT22;6257;57.634;18.310;2023-07-30T01:04:28;16.80;99.90
12386;DHT22;6257;57.634;18.310;2023-07-30T01:06:57;16.80;99.90
12386;DHT22;6257;57.634;18.310;2023-07-30T01:09:24;16.70;99.90
12386;DHT22;6257;57.634;18.310;2023-07-30T01:11:54;16.80;99.90
12386;DHT22;6257;57.634;18.310;2023-07-30T01:14:22;16.80;99.90
12386;DHT22;6257;57.634;18.310;2023-07-30T01:16:52;16.80;99.90
12386;DHT22;6257;57.634;18.310;2023-07-30T01:19:19;16.80;99.90
12386;DHT22;6257;57.634;18.310;2023-07-30T01:21:47;16.70;99.90
12386;DHT22;6257;57.634;18.310;2023-07-30T01:24:15;16.70;99.90
12386;DHT22;6257;57.634;18.310;2023-07-30T01:26:44;16.70;99.90
12386;DHT22;6257;57.634;18.310;2023-07-30T01:29:16;16.70;99.90
12386;DHT22;6257;57.634;18.310;2023-07-30T01:31:51;16.60;99.90
12386;DHT22;6257;57.634;18.310;2023-07-30T01:34:21;16.70;99.90
12386;DHT22;6257;57.634;18.310;2023-07-30T01:36:52;16.60;99.90
12386;DHT22;6257;57.634;18.310;2023-07-30T01:39:20;16.70;99.90
12386;DHT22;6257;57.634;18.310;2023-07-30T01:44:14;16.60;99.90
12386;DHT22;6257;57.634;18.310;2023-07-30T01:46:41;16.60;99.90
12386;DHT22;6257;57.634;18.310;2023-07-30T01:49:08;16.60;99.90
12386;DHT22;6257;57.634;18.310;2023-07-30T01:51:35;16.60;99.90
12386;DHT22;6257;57.634;18.310;2023-07-30T01:54:04;16.70;99.90
12386;DHT22;6257;57.634;18.310;2023-07-30T01:56:31;16.70;99.90
12386;DHT22;6257;57.634;18.310;2023-07-30T01:58:58;16.60;99.90
12386;DHT22;6257;57.634;18.310;2023-07-30T02:01:25;16.60;99.90
12386;DHT22;6257;57.634;18.310;2023-07-30T02:03:52;16.60;99.90
12386;DHT22;6257;57.634;18.310;2023-07-30T02:06:19;16.60;99.90
12386;DHT22;6257;57.634;18.310;2023-07-30T02:08:46;16.60;99.90
12386;DHT22;6257;57.634;18.310;2023-07-30T02:11:14;16.60;99.90
12386;DHT22;6257;57.634;18.310;2023-07-30T02:13:41;16.50;99.90
12386;DHT22;6257;57.634;18.310;2023-07-30T02:16:09;16.50;99.90
12386;DHT22;6257;57.634;18.310;2023-07-30T02:18:36;16.50;99.90
12386;DHT22;6257;57.634;18.310;2023-07-30T02:21:03;16.50;99.90
12386;DHT22;6257;57.634;18.310;2023-07-30T02:23:30;16.50;99.90
12386;DHT22;6257;57.634;18.310;2023-07-30T02:25:57;16.40;99.90
12386;DHT22;6257;57.634;18.310;2023-07-30T02:28:25;16.40;99.90
12386;DHT22;6257;57.634;18.310;2023-07-30T02:30:52;16.40;99.90
12386;DHT22;6257;57.634;18.310;2023-07-30T02:33:19;16.40;99.90
12386;DHT22;6257;57.634;18.310;2023-07-30T02:35:47;16.40;99.90
12386;DHT22;6257;57.634;18.310;2023-07-30T02:38:14;16.40;99.90
12386;DHT22;6257;57.634;18.310;2023-07-30T02:40:41;16.40;99.90
12386;DHT22;6257;57.634;18.310;2023-07-30T02:43:08;16.30;99.90
12386;DHT22;6257;57.634;18.310;2023-07-30T02:45:38;16.30;99.90
12386;DHT22;6257;57.634;18.310;2023-07-30T02:48:05;16.30;99.90
12386;DHT22;6257;57.634;18.310;2023-07-30T02:50:32;16.30;99.90
12386;DHT22;6257;57.634;18.310;2023-07-30T02:52:59;16.20;99.90
12386;DHT22;6257;57.634;18.310;2023-07-30T02:55:26;16.20;99.90
12386;DHT22;6257;57.634;18.310;2023-07-30T02:57:53;16.20;99.90
12386;DHT22;6257;57.634;18.310;2023-07-30T03:00:20;16.20;99.90
12386;DHT22;6257;57.634;18.310;2023-07-30T03:05:16;16.10;99.90
12386;DHT22;6257;57.634;18.310;2023-07-30T03:07:43;16.10;99.90
12386;DHT22;6257;57.634;18.310;2023-07-30T03:10:10;16.20;99.90
12386;DHT22;6257;57.634;18.310;2023-07-30T03:12:37;16.20;99.90
12386;DHT22;6257;57.634;18.310;2023-07-30T03:15:05;16.10;99.90
12386;DHT22;6257;57.634;18.310;2023-07-30T03:17:32;16.20;99.90
12386;DHT22;6257;57.634;18.310;2023-07-30T03:20:01;16.10;99.90
12386;DHT22;6257;57.634;18.310;2023-07-30T03:22:29;16.10;99.90
12386;DHT22;6257;57.634;18.310;2023-07-30T03:24:56;16.10;99.90
12386;DHT22;6257;57.634;18.310;2023-07-30T03:27:23;16.10;99.90
12386;DHT22;6257;57.634;18.310;2023-07-30T03:29:50;16.20;99.90
12386;DHT22;6257;57.634;18.310;2023-07-30T03:32:17;16.10;99.90
12386;DHT22;6257;57.634;18.310;2023-07-30T03:39:40;16.10;99.90
12386;DHT22;6257;57.634;18.310;2023-07-30T03:42:07;16.00;99.90
12386;DHT22;6257;57.634;18.310;2023-07-30T03:44:35;16.00;99.90
12386;DHT22;6257;57.634;18.310;2023-07-30T03:47:02;15.90;99.90
12386;DHT22;6257;57.634;18.310;2023-07-30T03:49:29;15.90;99.90
12386;DHT22;6257;57.634;18.310;2023-07-30T03:51:56;15.90;99.90
12386;DHT22;6257;57.634;18.310;2023-07-30T03:54:24;15.80;99.90
12386;DHT22;6257;57.634;18.310;2023-07-30T03:56:52;15.80;99.90
12386;DHT22;6257;57.634;18.310;2023-07-30T03:59:18;15.80;99.90
12386;DHT22;6257;57.634;18.310;2023-07-30T04:01:46;15.80;99.90
12386;DHT22;6257;57.634;18.310;2023-07-30T04:06:41;15.80;99.90
12386;DHT22;6257;57.634;18.310;2023-07-30T04:16:33;15.70;99.90
12386;DHT22;6257;57.634;18.310;2023-07-30T04:23:55;15.70;99.90
12386;DHT22;6257;57.634;18.310;2023-07-30T04:26:22;14.50;99.90
12386;DHT22;6257;57.634;18.310;2023-07-30T04:31:19;15.70;99.90
12386;DHT22;6257;57.634;18.310;2023-07-30T04:36:14;15.60;99.90
12386;DHT22;6257;57.634;18.310;2023-07-30T04:43:37;15.60;99.90
12386;DHT22;6257;57.634;18.310;2023-07-30T04:48:33;15.60;99.90
12386;DHT22;6257;57.634;18.310;2023-07-30T04:51:00;15.50;99.90
12386;DHT22;6257;57.634;18.310;2023-07-30T04:53:27;15.50;99.90
12386;DHT22;6257;57.634;18.310;2023-07-30T04:55:57;15.50;99.90
12386;DHT22;6257;57.634;18.310;2023-07-30T04:58:24;15.50;99.90
12386;DHT22;6257;57.634;18.310;2023-07-30T05:00:51;15.50;99.90
12386;DHT22;6257;57.634;18.310;2023-07-30T05:05:47;15.40;99.90
12386;DHT22;6257;57.634;18.310;2023-07-30T05:08:14;15.50;99.90
12386;DHT22;6257;57.634;18.310;2023-07-30T05:10:41;15.40;99.90
12386;DHT22;6257;57.634;18.310;2023-07-30T05:13:08;15.40;99.90
12386;DHT22;6257;57.634;18.310;2023-07-30T05:15:35;15.40;99.90
12386;DHT22;6257;57.634;18.310;2023-07-30T05:18:03;15.40;99.90
12386;DHT22;6257;57.634;18.310;2023-07-30T05:20:31;15.50;99.90
12386;DHT22;6257;57.634;18.310;2023-07-30T05:22:58;15.50;99.90
12386;DHT22;6257;57.634;18.310;2023-07-30T05:25:25;15.50;99.90
12386;DHT22;6257;57.634;18.310;2023-07-30T05:27:52;15.60;99.90
12386;DHT22;6257;57.634;18.310;2023-07-30T05:32:46;15.60;99.90
12386;DHT22;6257;57.634;18.310;2023-07-30T05:35:13;15.60;99.90
12386;DHT22;6257;57.634;18.310;2023-07-30T05:40:10;15.60;99.90
12386;DHT22;6257;57.634;18.310;2023-07-30T05:42:37;15.60;99.90
12386;DHT22;6257;57.634;18.310;2023-07-30T05:45:05;15.60;99.90
12386;DHT22;6257;57.634;18.310;2023-07-30T05:47:32;15.60;99.90
12386;DHT22;6257;57.634;18.310;2023-07-30T05:49:59;15.50;99.90
12386;DHT22;6257;57.634;18.310;2023-07-30T05:52:26;15.60;99.90
12386;DHT22;6257;57.634;18.310;2023-07-30T05:57:21;15.70;99.90
12386;DHT22;6257;57.634;18.310;2023-07-30T05:59:49;15.80;99.90
12386;DHT22;6257;57.634;18.310;2023-07-30T06:02:16;15.90;99.90
12386;DHT22;6257;57.634;18.310;2023-07-30T06:04:43;15.90;99.90
12386;DHT22;6257;57.634;18.310;2023-07-30T06:07:10;16.00;99.90
12386;DHT22;6257;57.634;18.310;2023-07-30T06:09:37;16.00;99.90
12386;DHT22;6257;57.634;18.310;2023-07-30T06:12:05;16.10;99.90
12386;DHT22;6257;57.634;18.310;2023-07-30T06:14:33;16.10;99.90
12386;DHT22;6257;57.634;18.310;2023-07-30T06:17:00;16.20;99.90
12386;DHT22;6257;57.634;18.310;2023-07-30T06:19:27;16.20;99.90
12386;DHT22;6257;57.634;18.310;2023-07-30T06:21:54;16.30;99.90
12386;DHT22;6257;57.634;18.310;2023-07-30T06:24:21;16.30;99.90
12386;DHT22;6257;57.634;18.310;2023-07-30T06:26:48;16.40;99.90
12386;DHT22;6257;57.634;18.310;2023-07-30T06:29:17;16.40;99.90
12386;DHT22;6257;57.634;18.310;2023-07-30T06:31:44;16.50;99.90
12386;DHT22;6257;57.634;18.310;2023-07-30T06:34:11;16.60;99.90
12386;DHT22;6257;57.634;18.310;2023-07-30T06:36:38;16.70;99.90
12386;DHT22;6257;57.634;18.310;2023-07-30T06:39:05;16.80;99.90
12386;DHT22;6257;57.634;18.310;2023-07-30T06:41:32;16.80;99.90
12386;DHT22;6257;57.634;18.310;2023-07-30T06:43:59;16.80;99.90
12386;DHT22;6257;57.634;18.310;2023-07-30T06:46:27;16.80;99.90
12386;DHT22;6257;57.634;18.310;2023-07-30T06:48:54;16.80;99.90
12386;DHT22;6257;57.634;18.310;2023-07-30T06:51:24;16.80;99.90
12386;DHT22;6257;57.634;18.310;2023-07-30T06:53:51;16.90;99.90
12386;DHT22;6257;57.634;18.310;2023-07-30T06:56:18;16.90;99.90
12386;DHT22;6257;57.634;18.310;2023-07-30T06:58:45;16.90;99.90
12386;DHT22;6257;57.634;18.310;2023-07-30T07:01:12;17.00;99.90
12386;DHT22;6257;57.634;18.310;2023-07-30T07:03:41;17.00;99.90
12386;DHT22;6257;57.634;18.310;2023-07-30T07:06:08;17.00;99.90
12386;DHT22;6257;57.634;18.310;2023-07-30T07:08:35;17.10;99.90
12386;DHT22;6257;57.634;18.310;2023-07-30T07:11:02;17.20;99.90
12386;DHT22;6257;57.634;18.310;2023-07-30T07:13:29;17.40;99.90
12386;DHT22;6257;57.634;18.310;2023-07-30T07:15:56;17.40;99.90
12386;DHT22;6257;57.634;18.310;2023-07-30T07:18:23;17.50;99.90
12386;DHT22;6257;57.634;18.310;2023-07-30T07:20:52;17.60;99.90
12386;DHT22;6257;57.634;18.310;2023-07-30T07:23:19;17.80;99.90
12386;DHT22;6257;57.634;18.310;2023-07-30T07:25:46;17.90;99.90
12386;DHT22;6257;57.634;18.310;2023-07-30T07:28:13;17.90;99.90
12386;DHT22;6257;57.634;18.310;2023-07-30T07:30:40;17.80;99.90
12386;DHT22;6257;57.634;18.310;2023-07-30T07:33:07;17.80;99.90
12386;DHT22;6257;57.634;18.310;2023-07-30T07:35:38;17.70;99.90
12386;DHT22;6257;57.634;18.310;2023-07-30T07:38:07;17.80;99.90
12386;DHT22;6257;57.634;18.310;2023-07-30T07:40:36;17.90;99.90
12386;DHT22;6257;57.634;18.310;2023-07-30T07:43:06;18.00;99.90
12386;DHT22;6257;57.634;18.310;2023-07-30T07:45:33;18.20;99.90
12386;DHT22;6257;57.634;18.310;2023-07-30T07:48:00;18.20;99.90
12386;DHT22;6257;57.634;18.310;2023-07-30T07:50:27;18.30;99.90
12386;DHT22;6257;57.634;18.310;2023-07-30T07:52:54;18.40;99.90
12386;DHT22;6257;57.634;18.310;2023-07-30T07:55:23;18.70;99.90
12386;DHT22;6257;57.634;18.310;2023-07-30T07:57:50;18.90;99.90
12386;DHT22;6257;57.634;18.310;2023-07-30T08:00:17;19.00;99.90
12386;DHT22;6257;57.634;18.310;2023-07-30T08:02:45;18.90;99.90
12386;DHT22;6257;57.634;18.310;2023-07-30T08:05:12;18.90;99.90
12386;DHT22;6257;57.634;18.310;2023-07-30T08:07:39;18.80;99.90
12386;DHT22;6257;57.634;18.310;2023-07-30T08:10:07;18.60;99.90
12386;DHT22;6257;57.634;18.310;2023-07-30T08:12:35;18.40;99.90
12386;DHT22;6257;57.634;18.310;2023-07-30T08:15:03;18.20;99.90
12386;DHT22;6257;57.634;18.310;2023-07-30T08:17:30;18.00;99.90
12386;DHT22;6257;57.634;18.310;2023-07-30T08:19:57;17.80;99.90
12386;DHT22;6257;57.634;18.310;2023-07-30T08:22:24;17.60;99.90
12386;DHT22;6257;57.634;18.310;2023-07-30T08:24:51;17.50;99.90
12386;DHT22;6257;57.634;18.310;2023-07-30T08:27:18;17.40;99.90
12386;DHT22;6257;57.634;18.310;2023-07-30T08:29:47;17.40;99.90
12386;DHT22;6257;57.634;18.310;2023-07-30T08:32:14;17.40;99.90
12386;DHT22;6257;57.634;18.310;2023-07-30T08:34:41;17.40;99.90
12386;DHT22;6257;57.634;18.310;2023-07-30T08:37:08;17.40;99.90
12386;DHT22;6257;57.634;18.310;2023-07-30T08:39:35;17.40;99.90
12386;DHT22;6257;57.634;18.310;2023-07-30T08:42:03;17.30;99.90
12386;DHT22;6257;57.634;18.310;2023-07-30T08:44:30;17.30;99.90
12386;DHT22;6257;57.634;18.310;2023-07-30T08:49:26;17.20;99.90
12386;DHT22;6257;57.634;18.310;2023-07-30T08:51:58;17.30;99.90
12386;DHT22;6257;57.634;18.310;2023-07-30T08:54:29;17.30;99.90
12386;DHT22;6257;57.634;18.310;2023-07-30T08:56:57;17.50;99.90
12386;DHT22;6257;57.634;18.310;2023-07-30T08:59:24;17.60;99.90
12386;DHT22;6257;57.634;18.310;2023-07-30T09:01:54;17.80;99.90
12386;DHT22;6257;57.634;18.310;2023-07-30T09:04:23;17.90;99.90
12386;DHT22;6257;57.634;18.310;2023-07-30T09:06:51;17.90;99.90
12386;DHT22;6257;57.634;18.310;2023-07-30T09:09:18;18.00;99.90
12386;DHT22;6257;57.634;18.310;2023-07-30T09:11:51;18.10;99.90
12386;DHT22;6257;57.634;18.310;2023-07-30T09:14:20;18.30;99.90
12386;DHT22;6257;57.634;18.310;2023-07-30T09:16:47;18.50;99.90
12386;DHT22;6257;57.634;18.310;2023-07-30T09:19:16;18.70;99.90
12386;DHT22;6257;57.634;18.310;2023-07-30T09:21:45;18.90;99.90
12386;DHT22;6257;57.634;18.310;2023-07-30T09:24:14;19.30;99.90
12386;DHT22;6257;57.634;18.310;2023-07-30T09:26:47;19.60;99.90
12386;DHT22;6257;57.634;18.310;2023-07-30T09:29:14;19.90;99.90
12386;DHT22;6257;57.634;18.310;2023-07-30T09:31:48;19.90;99.90
12386;DHT22;6257;57.634;18.310;2023-07-30T09:34:17;19.70;99.90
12386;DHT22;6257;57.634;18.310;2023-07-30T09:36:46;19.60;99.90
12386;DHT22;6257;57.634;18.310;2023-07-30T09:39:17;19.50;99.90
12386;DHT22;6257;57.634;18.310;2023-07-30T09:41:45;19.40;99.90
12386;DHT22;6257;57.634;18.310;2023-07-30T09:44:13;19.30;99.90
12386;DHT22;6257;57.634;18.310;2023-07-30T09:46:45;19.30;99.90
12386;DHT22;6257;57.634;18.310;2023-07-30T09:49:12;19.50;99.90
12386;DHT22;6257;57.634;18.310;2023-07-30T09:51:40;19.80;99.90
12386;DHT22;6257;57.634;18.310;2023-07-30T09:54:10;20.10;99.90
12386;DHT22;6257;57.634;18.310;2023-07-30T09:56:38;20.40;99.90
12386;DHT22;6257;57.634;18.310;2023-07-30T09:59:06;20.70;99.90
12386;DHT22;6257;57.634;18.310;2023-07-30T10:01:37;20.60;99.90
12386;DHT22;6257;57.634;18.310;2023-07-30T10:04:08;20.20;99.90
12386;DHT22;6257;57.634;18.310;2023-07-30T10:06:38;19.70;99.90
12386;DHT22;6257;57.634;18.310;2023-07-30T10:09:08;19.40;99.90
12386;DHT22;6257;57.634;18.310;2023-07-30T10:11:37;20.80;99.90
12386;DHT22;6257;57.634;18.310;2023-07-30T10:14:05;18.90;99.90
12386;DHT22;6257;57.634;18.310;2023-07-30T10:16:32;18.70;99.90
12386;DHT22;6257;57.634;18.310;2023-07-30T10:18:59;18.80;99.90
12386;DHT22;6257;57.634;18.310;2023-07-30T10:21:27;18.80;99.90
12386;DHT22;6257;57.634;18.310;2023-07-30T10:24:01;18.90;99.90
12386;DHT22;6257;57.634;18.310;2023-07-30T10:26:31;19.10;99.90
12386;DHT22;6257;57.634;18.310;2023-07-30T10:29:11;19.30;99.90
12386;DHT22;6257;57.634;18.310;2023-07-30T10:31:38;19.70;99.90
12386;DHT22;6257;57.634;18.310;2023-07-30T10:34:07;19.90;99.90
12386;DHT22;6257;57.634;18.310;2023-07-30T10:36:40;20.00;99.90
12386;DHT22;6257;57.634;18.310;2023-07-30T10:39:12;20.20;99.90
12386;DHT22;6257;57.634;18.310;2023-07-30T10:41:43;20.30;99.90
12386;DHT22;6257;57.634;18.310;2023-07-30T10:44:18;20.40;99.90
12386;DHT22;6257;57.634;18.310;2023-07-30T10:46:45;20.60;99.90
12386;DHT22;6257;57.634;18.310;2023-07-30T10:49:12;20.90;99.90
12386;DHT22;6257;57.634;18.310;2023-07-30T10:51:39;21.20;99.90
12386;DHT22;6257;57.634;18.310;2023-07-30T10:54:07;21.30;99.90
12386;DHT22;6257;57.634;18.310;2023-07-30T10:56:36;21.20;99.90
12386;DHT22;6257;57.634;18.310;2023-07-30T10:59:05;21.20;99.90
12386;DHT22;6257;57.634;18.310;2023-07-30T11:01:36;21.20;99.90
12386;DHT22;6257;57.634;18.310;2023-07-30T11:04:07;21.10;99.90
12386;DHT22;6257;57.634;18.310;2023-07-30T11:06:34;20.80;99.90
12386;DHT22;6257;57.634;18.310;2023-07-30T11:09:01;20.90;99.90
12386;DHT22;6257;57.634;18.310;2023-07-30T11:11:28;21.10;99.90
12386;DHT22;6257;57.634;18.310;2023-07-30T11:13:55;21.30;99.90
12386;DHT22;6257;57.634;18.310;2023-07-30T11:16:24;21.50;99.90
12386;DHT22;6257;57.634;18.310;2023-07-30T11:18:52;21.70;99.90
12386;DHT22;6257;57.634;18.310;2023-07-30T11:21:19;21.70;99.90
12386;DHT22;6257;57.634;18.310;2023-07-30T11:23:46;21.50;99.90
12386;DHT22;6257;57.634;18.310;2023-07-30T11:26:15;22.50;99.90
12386;DHT22;6257;57.634;18.310;2023-07-30T11:28:42;21.10;99.90
12386;DHT22;6257;57.634;18.310;2023-07-30T11:31:11;21.20;99.90
12386;DHT22;6257;57.634;18.310;2023-07-30T11:33:41;21.20;99.90
12386;DHT22;6257;57.634;18.310;2023-07-30T11:36:10;21.10;99.90
12386;DHT22;6257;57.634;18.310;2023-07-30T11:38:38;21.10;99.90
12386;DHT22;6257;57.634;18.310;2023-07-30T11:41:06;21.10;99.90
12386;DHT22;6257;57.634;18.310;2023-07-30T11:43:37;21.20;99.90
12386;DHT22;6257;57.634;18.310;2023-07-30T11:46:08;21.20;99.90
12386;DHT22;6257;57.634;18.310;2023-07-30T11:48:36;21.30;99.90
12386;DHT22;6257;57.634;18.310;2023-07-30T11:51:04;21.40;99.90
12386;DHT22;6257;57.634;18.310;2023-07-30T11:53:45;21.40;99.90
12386;DHT22;6257;57.634;18.310;2023-07-30T11:56:22;21.20;99.90
12386;DHT22;6257;57.634;18.310;2023-07-30T11:58:54;21.20;99.90
12386;DHT22;6257;57.634;18.310;2023-07-30T12:01:24;21.40;99.90
12386;DHT22;6257;57.634;18.310;2023-07-30T12:03:54;21.40;99.90
12386;DHT22;6257;57.634;18.310;2023-07-30T12:06:23;21.30;99.90
12386;DHT22;6257;57.634;18.310;2023-07-30T12:08:50;21.40;99.90
12386;DHT22;6257;57.634;18.310;2023-07-30T12:11:18;21.40;99.90
12386;DHT22;6257;57.634;18.310;2023-07-30T12:13:46;21.40;99.90
12386;DHT22;6257;57.634;18.310;2023-07-30T12:16:16;21.30;99.90
12386;DHT22;6257;57.634;18.310;2023-07-30T12:18:43;21.10;99.90
12386;DHT22;6257;57.634;18.310;2023-07-30T12:21:10;21.00;99.90
12386;DHT22;6257;57.634;18.310;2023-07-30T12:23:39;21.10;99.90
12386;DHT22;6257;57.634;18.310;2023-07-30T12:26:06;21.30;99.90
12386;DHT22;6257;57.634;18.310;2023-07-30T12:28:33;21.50;99.90
12386;DHT22;6257;57.634;18.310;2023-07-30T12:31:00;21.70;99.90
12386;DHT22;6257;57.634;18.310;2023-07-30T12:33:28;21.70;99.90
12386;DHT22;6257;57.634;18.310;2023-07-30T12:35:55;21.80;99.90
12386;DHT22;6257;57.634;18.310;2023-07-30T12:38:22;21.70;99.90
12386;DHT22;6257;57.634;18.310;2023-07-30T12:40:50;21.60;99.90
12386;DHT22;6257;57.634;18.310;2023-07-30T12:43:17;21.50;99.90
12386;DHT22;6257;57.634;18.310;2023-07-30T12:45:46;21.60;99.90
12386;DHT22;6257;57.634;18.310;2023-07-30T12:48:15;21.50;99.90
12386;DHT22;6257;57.634;18.310;2023-07-30T12:50:42;21.30;99.90
12386;DHT22;6257;57.634;18.310;2023-07-30T12:53:09;21.20;99.90
12386;DHT22;6257;57.634;18.310;2023-07-30T12:55:36;21.10;99.90
12386;DHT22;6257;57.634;18.310;2023-07-30T12:58:06;21.20;99.90
12386;DHT22;6257;57.634;18.310;2023-07-30T13:00:34;21.20;99.90
12386;DHT22;6257;57.634;18.310;2023-07-30T13:03:01;21.20;99.90
12386;DHT22;6257;57.634;18.310;2023-07-30T13:05:28;21.20;99.90
12386;DHT22;6257;57.634;18.310;2023-07-30T13:07:56;21.40;99.90
12386;DHT22;6257;57.634;18.310;2023-07-30T13:10:23;21.40;99.90
12386;DHT22;6257;57.634;18.310;2023-07-30T13:12:50;21.40;99.90
12386;DHT22;6257;57.634;18.310;2023-07-30T13:15:18;21.50;99.90
12386;DHT22;6257;57.634;18.310;2023-07-30T13:17:46;21.60;99.90
12386;DHT22;6257;57.634;18.310;2023-07-30T13:20:13;21.60;99.90
12386;DHT22;6257;57.634;18.310;2023-07-30T13:22:40;21.70;99.90
12386;DHT22;6257;57.634;18.310;2023-07-30T13:25:07;21.80;99.90
12386;DHT22;6257;57.634;18.310;2023-07-30T13:27:34;21.70;99.90
12386;DHT22;6257;57.634;18.310;2023-07-30T13:30:01;21.70;99.90
12386;DHT22;6257;57.634;18.310;2023-07-30T13:32:30;21.70;99.90
12386;DHT22;6257;57.634;18.310;2023-07-30T13:34:57;21.70;99.90
12386;DHT22;6257;57.634;18.310;2023-07-30T13:37:24;21.60;99.90
12386;DHT22;6257;57.634;18.310;2023-07-30T13:39:51;21.70;99.90
12386;DHT22;6257;57.634;18.310;2023-07-30T13:42:18;21.70;99.90
12386;DHT22;6257;57.634;18.310;2023-07-30T13:44:45;21.70;99.90
12386;DHT22;6257;57.634;18.310;2023-07-30T13:47:12;21.70;99.90
12386;DHT22;6257;57.634;18.310;2023-07-30T13:49:41;21.70;99.90
12386;DHT22;6257;57.634;18.310;2023-07-30T13:52:08;21.90;99.90
12386;DHT22;6257;57.634;18.310;2023-07-30T13:54:35;22.00;99.90
12386;DHT22;6257;57.634;18.310;2023-07-30T13:57:03;22.10;99.90
12386;DHT22;6257;57.634;18.310;2023-07-30T13:59:30;22.10;99.90
12386;DHT22;6257;57.634;18.310;2023-07-30T14:01:57;22.10;99.90
12386;DHT22;6257;57.634;18.310;2023-07-30T14:04:24;22.20;99.90
12386;DHT22;6257;57.634;18.310;2023-07-30T14:06:53;22.30;99.90
12386;DHT22;6257;57.634;18.310;2023-07-30T14:09:20;22.30;99.90
12386;DHT22;6257;57.634;18.310;2023-07-30T14:11:47;22.40;99.90
12386;DHT22;6257;57.634;18.310;2023-07-30T14:14:14;22.30;99.90
12386;DHT22;6257;57.634;18.310;2023-07-30T14:16:41;22.30;99.90
12386;DHT22;6257;57.634;18.310;2023-07-30T14:19:08;22.30;99.90
12386;DHT22;6257;57.634;18.310;2023-07-30T14:21:35;22.40;99.90
12386;DHT22;6257;57.634;18.310;2023-07-30T14:24:04;22.40;99.90
12386;DHT22;6257;57.634;18.310;2023-07-30T14:26:31;22.40;99.90
12386;DHT22;6257;57.634;18.310;2023-07-30T14:28:58;22.30;99.90
12386;DHT22;6257;57.634;18.310;2023-07-30T14:31:25;22.30;99.90
12386;DHT22;6257;57.634;18.310;2023-07-30T14:33:52;22.20;99.90
12386;DHT22;6257;57.634;18.310;2023-07-30T14:36:19;22.20;99.90
12386;DHT22;6257;57.634;18.310;2023-07-30T14:38:46;22.20;99.90
12386;DHT22;6257;57.634;18.310;2023-07-30T14:43:42;22.40;99.90
12386;DHT22;6257;57.634;18.310;2023-07-30T14:46:09;22.40;99.90
12386;DHT22;6257;57.634;18.310;2023-07-30T14:48:39;22.50;99.90
12386;DHT22;6257;57.634;18.310;2023-07-30T14:51:06;22.40;99.90
12386;DHT22;6257;57.634;18.310;2023-07-30T14:56:01;22.40;99.90
12386;DHT22;6257;57.634;18.310;2023-07-30T14:58:31;22.30;99.90
12386;DHT22;6257;57.634;18.310;2023-07-30T15:00:58;22.20;99.90
12386;DHT22;6257;57.634;18.310;2023-07-30T15:03:25;22.20;99.90
12386;DHT22;6257;57.634;18.310;2023-07-30T15:05:52;22.10;99.90
12386;DHT22;6257;57.634;18.310;2023-07-30T15:08:19;22.10;99.90
12386;DHT22;6257;57.634;18.310;2023-07-30T15:10:46;22.10;99.90
12386;DHT22;6257;57.634;18.310;2023-07-30T15:13:13;22.10;99.90
12386;DHT22;6257;57.634;18.310;2023-07-30T15:15:41;22.10;99.90
12386;DHT22;6257;57.634;18.310;2023-07-30T15:18:09;22.00;99.90
12386;DHT22;6257;57.634;18.310;2023-07-30T15:20:36;21.90;99.90
12386;DHT22;6257;57.634;18.310;2023-07-30T15:23:03;21.90;99.90
12386;DHT22;6257;57.634;18.310;2023-07-30T15:25:31;21.90;99.90
12386;DHT22;6257;57.634;18.310;2023-07-30T15:27:58;22.00;99.90
12386;DHT22;6257;57.634;18.310;2023-07-30T15:30:26;22.00;99.90
12386;DHT22;6257;57.634;18.310;2023-07-30T15:32:54;22.00;99.90
12386;DHT22;6257;57.634;18.310;2023-07-30T15:35:22;22.00;99.90
12386;DHT22;6257;57.634;18.310;2023-07-30T15:37:49;22.00;99.90
12386;DHT22;6257;57.634;18.310;2023-07-30T15:40:17;21.90;99.90
12386;DHT22;6257;57.634;18.310;2023-07-30T15:42:44;21.80;99.90
12386;DHT22;6257;57.634;18.310;2023-07-30T15:45:11;21.80;99.90
12386;DHT22;6257;57.634;18.310;2023-07-30T15:47:38;21.80;99.90
12386;DHT22;6257;57.634;18.310;2023-07-30T15:50:08;21.80;99.90
12386;DHT22;6257;57.634;18.310;2023-07-30T15:52:35;21.80;99.90
12386;DHT22;6257;57.634;18.310;2023-07-30T15:55:02;21.80;99.90
12386;DHT22;6257;57.634;18.310;2023-07-30T15:57:30;21.80;99.90
12386;DHT22;6257;57.634;18.310;2023-07-30T15:59:57;21.60;99.90
12386;DHT22;6257;57.634;18.310;2023-07-30T16:02:25;21.60;99.90
12386;DHT22;6257;57.634;18.310;2023-07-30T16:04:52;21.50;99.90
12386;DHT22;6257;57.634;18.310;2023-07-30T16:07:21;21.50;99.90
12386;DHT22;6257;57.634;18.310;2023-07-30T16:09:48;21.40;99.90
12386;DHT22;6257;57.634;18.310;2023-07-30T16:12:15;21.40;99.90
12386;DHT22;6257;57.634;18.310;2023-07-30T16:14:43;21.30;99.90
12386;DHT22;6257;57.634;18.310;2023-07-30T16:17:10;21.30;99.90
12386;DHT22;6257;57.634;18.310;2023-07-30T16:19:39;21.30;99.90
12386;DHT22;6257;57.634;18.310;2023-07-30T16:22:06;21.30;99.90
12386;DHT22;6257;57.634;18.310;2023-07-30T16:24:36;21.30;99.90
12386;DHT22;6257;57.634;18.310;2023-07-30T16:27:03;21.20;99.90